Linlithgo, New York
Current Conditions -  °F | °C
As of 5:53 PM on Wednesday 17 Dec 2014 (Local Time) from KPOU Reporting Station
Overcast Overcast  
Wind Chill: 39°   Ceiling: 5500
Heat Index: 45°   Visibility: 10mi
Dew Point: 33°   Wind: 14mph
Humidity: 63%   Direction: 280°W
Pressure: 29.86"   Gusts: 20mph
Location:  42.118°N, 73.8553°W
Report Text: KPOU 172253Z 28012G17KT 10SM SCT044 OVC055 07/01 A2986 RMK AO2 RAB37E50 SLP108 P0000 T00720006
Loading
Personal Weather Stations






























Interactive Weather Map New forecast layout! Learn more

10-Day Weather Forecast

Advertisements
Track Severe Weather on mobile